createdAt,value
2023-03-05T00:01:33.680Z,99326.16
2023-03-05T00:04:02.561Z,99332.19
2023-03-05T00:06:32.289Z,99326.16
2023-03-05T00:09:00.525Z,99334.81
2023-03-05T00:11:30.388Z,99333.97
2023-03-05T00:13:58.929Z,99326.19
2023-03-05T00:16:27.152Z,99337.41
2023-03-05T00:18:56.792Z,99329.78
2023-03-05T00:21:25.871Z,99328.00
2023-03-05T00:23:54.561Z,99328.88
2023-03-05T00:26:28.415Z,99322.75
2023-03-05T00:28:58.527Z,99325.34
2023-03-05T00:31:30.837Z,99323.53
2023-03-05T00:34:01.549Z,99320.22
2023-03-05T00:36:29.977Z,99320.19
2023-03-05T00:38:58.258Z,99320.16
2023-03-05T00:41:25.951Z,99318.50
2023-03-05T00:43:53.529Z,99312.38
2023-03-05T00:46:22.319Z,99307.91
2023-03-05T00:48:49.902Z,99310.50
2023-03-05T00:51:17.556Z,99304.50
2023-03-05T00:53:45.087Z,99297.47
2023-03-05T00:56:14.313Z,99299.25
2023-03-05T00:58:41.850Z,99298.44
2023-03-05T01:01:11.541Z,99298.53
2023-03-05T01:03:38.715Z,99294.09
2023-03-05T01:06:08.951Z,99297.47
2023-03-05T01:08:38.986Z,99297.59
2023-03-05T01:11:08.796Z,99284.63
2023-03-05T01:13:37.502Z,99287.28
2023-03-05T01:16:07.728Z,99284.69
2023-03-05T01:18:35.570Z,99287.25
2023-03-05T01:21:04.317Z,99293.31
2023-03-05T01:23:31.783Z,99284.63
2023-03-05T01:26:00.783Z,99282.91
2023-03-05T01:28:29.070Z,99283.91
2023-03-05T01:30:56.647Z,99275.22
2023-03-05T01:33:25.287Z,99281.34
2023-03-05T01:35:52.764Z,99273.59
2023-03-05T01:38:20.102Z,99281.47
2023-03-05T01:40:49.515Z,99280.56
2023-03-05T01:43:25.257Z,99278.97
2023-03-05T01:46:28.482Z,99279.06
2023-03-05T01:49:17.345Z,99280.09
2023-03-05T01:51:57.962Z,99271.34
2023-03-05T01:54:50.418Z,99266.59
2023-03-05T01:57:23.475Z,99270.97
2023-03-05T01:59:56.664Z,99259.91
2023-03-05T02:02:25.353Z,99261.72
2023-03-05T02:05:07.388Z,99265.06
2023-03-05T02:07:37.655Z,99262.53
2023-03-05T02:10:26.545Z,99261.72
2023-03-05T02:12:57.217Z,99266.72
2023-03-05T02:15:24.834Z,99252.16
2023-03-05T02:17:53.186Z,99257.38
2023-03-05T02:20:24.658Z,99259.09
2023-03-05T02:22:52.520Z,99253.09
2023-03-05T02:25:23.115Z,99254.81
2023-03-05T02:28:00.314Z,99252.22
2023-03-05T02:30:28.975Z,99258.41
2023-03-05T02:33:02.770Z,99245.22
2023-03-05T02:35:29.846Z,99243.63
2023-03-05T02:37:57.450Z,99248.97
2023-03-05T02:40:25.614Z,99249.09
2023-03-05T02:42:54.070Z,99246.16
2023-03-05T02:45:22.267Z,99239.09
2023-03-05T02:47:49.778Z,99246.91
2023-03-05T02:50:17.611Z,99240.16
2023-03-05T02:52:45.498Z,99230.72
2023-03-05T02:55:14.668Z,99216.81
2023-03-05T02:57:42.141Z,99216.00
2023-03-05T03:00:17.149Z,99219.50
2023-03-05T03:02:44.857Z,99222.13
2023-03-05T03:05:12.282Z,99216.94
2023-03-05T03:07:39.835Z,99220.34
2023-03-05T03:10:07.673Z,99213.44
2023-03-05T03:12:42.021Z,99211.72
2023-03-05T03:15:11.111Z,99207.38
2023-03-05T03:17:39.936Z,99218.63
2023-03-05T03:20:09.800Z,99214.28
2023-03-05T03:22:37.523Z,99209.94
2023-03-05T03:25:05.582Z,99216.03
2023-03-05T03:27:33.103Z,99216.16
2023-03-05T03:30:04.994Z,99217.09
2023-03-05T03:32:41.166Z,99215.13
2023-03-05T03:35:10.601Z,99211.44
2023-03-05T03:37:39.331Z,99211.44
2023-03-05T03:40:07.498Z,99214.28
2023-03-05T03:42:36.415Z,99213.56
2023-03-05T03:45:04.247Z,99211.75
2023-03-05T03:47:39.143Z,99200.47
2023-03-05T03:50:07.111Z,99205.53
2023-03-05T03:52:35.306Z,99202.19
2023-03-05T03:55:03.986Z,99207.41
2023-03-05T03:57:33.894Z,99203.97
2023-03-05T04:00:01.508Z,99197.06
2023-03-05T04:02:34.910Z,99203.19
2023-03-05T04:05:05.064Z,99207.53
2023-03-05T04:07:32.384Z,99206.75
2023-03-05T04:09:59.866Z,99207.69
2023-03-05T04:12:27.197Z,99201.53
2023-03-05T04:14:54.748Z,99196.25
2023-03-05T04:17:22.146Z,99193.59
2023-03-05T04:19:49.615Z,99187.50
2023-03-05T04:22:18.499Z,99187.50
2023-03-05T04:24:46.219Z,99193.59
2023-03-05T04:27:13.466Z,99185.81
2023-03-05T04:29:41.072Z,99182.28
2023-03-05T04:32:08.528Z,99176.19
2023-03-05T04:34:38.003Z,99173.56
2023-03-05T04:37:06.539Z,99171.81
2023-03-05T04:39:33.938Z,99174.44
2023-03-05T04:42:01.401Z,99166.59
2023-03-05T04:44:29.036Z,99162.44
2023-03-05T04:46:56.262Z,99161.59
2023-03-05T04:49:23.874Z,99160.75
2023-03-05T04:51:51.299Z,99152.91
2023-03-05T04:54:18.728Z,99153.78
2023-03-05T04:56:46.232Z,99156.44
2023-03-05T04:59:13.814Z,99152.13
2023-03-05T05:01:42.186Z,99151.41
2023-03-05T05:04:09.729Z,99146.97
2023-03-05T05:06:37.096Z,99144.41
2023-03-05T05:09:11.573Z,99134.91
2023-03-05T05:11:40.178Z,99137.59
2023-03-05T05:14:07.875Z,99141.03
2023-03-05T05:16:35.179Z,99137.59
2023-03-05T05:19:02.481Z,99126.38
2023-03-05T05:21:30.066Z,99131.59
2023-03-05T05:23:57.458Z,99123.72
2023-03-05T05:26:28.217Z,99130.69
2023-03-05T05:28:55.471Z,99125.56
2023-03-05T05:31:22.948Z,99116.06
2023-03-05T05:33:50.456Z,99115.22
2023-03-05T05:36:22.672Z,99119.59
2023-03-05T05:38:51.567Z,99111.81
2023-03-05T05:41:20.258Z,99110.03
2023-03-05T05:43:48.128Z,99115.13
2023-03-05T05:46:18.279Z,99123.00
2023-03-05T05:48:46.698Z,99129.94
2023-03-05T05:51:20.765Z,99130.78
2023-03-05T05:53:50.041Z,99127.34
2023-03-05T05:56:24.118Z,99113.47
2023-03-05T05:58:52.683Z,99110.88
2023-03-05T06:01:24.401Z,99111.72
2023-03-05T06:03:51.587Z,99105.63
2023-03-05T06:06:22.492Z,99096.09
2023-03-05T06:08:50.517Z,99102.16
2023-03-05T06:11:19.557Z,99106.44
2023-03-05T06:13:48.962Z,99108.19
2023-03-05T06:16:21.069Z,99106.41
2023-03-05T06:18:48.631Z,99105.53
2023-03-05T06:21:19.788Z,99094.31
2023-03-05T06:23:48.677Z,99103.00
2023-03-05T06:26:19.839Z,99097.81
2023-03-05T06:28:48.192Z,99097.81
2023-03-05T06:31:18.750Z,99087.44
2023-03-05T06:33:47.146Z,99095.16
2023-03-05T06:36:18.910Z,99088.22
2023-03-05T06:39:12.188Z,99080.47
2023-03-05T06:41:39.712Z,99083.06
2023-03-05T06:44:07.228Z,99080.41
2023-03-05T06:46:40.194Z,99077.78
2023-03-05T06:49:09.784Z,99083.84
2023-03-05T06:51:39.948Z,99081.25
2023-03-05T06:54:12.921Z,99074.31
2023-03-05T06:56:42.906Z,99081.25
2023-03-05T06:59:12.677Z,99078.69
2023-03-05T07:01:39.905Z,99072.66
2023-03-05T07:04:07.192Z,99076.94
2023-03-05T07:06:37.228Z,99074.41
2023-03-05T07:09:06.947Z,99077.88
2023-03-05T07:11:34.715Z,99069.16
2023-03-05T07:14:03.526Z,99074.31
2023-03-05T07:16:32.950Z,99061.41
2023-03-05T07:19:04.252Z,99064.03
2023-03-05T07:21:33.715Z,99063.19
2023-03-05T07:24:03.136Z,99058.81
2023-03-05T07:26:31.319Z,99070.00
2023-03-05T07:28:59.582Z,99064.81
2023-03-05T07:31:31.192Z,99060.56
2023-03-05T07:34:01.508Z,99057.59
2023-03-05T07:36:29.778Z,99057.41
2023-03-05T07:38:57.487Z,99057.69
2023-03-05T07:41:25.072Z,99062.16
2023-03-05T07:43:55.388Z,99050.03
2023-03-05T07:46:26.323Z,99050.94
2023-03-05T07:48:57.490Z,99050.09
2023-03-05T07:51:26.909Z,99044.88
2023-03-05T07:53:56.012Z,99037.09
2023-03-05T07:56:32.184Z,99044.03
2023-03-05T07:59:01.667Z,99045.78
2023-03-05T08:01:32.959Z,99053.72
2023-03-05T08:04:00.329Z,99051.84
2023-03-05T08:06:28.002Z,99049.19
2023-03-05T08:08:58.385Z,99057.13
2023-03-05T08:11:25.687Z,99044.00
2023-03-05T08:13:53.066Z,99047.41
2023-03-05T08:16:22.548Z,99049.13
2023-03-05T08:18:50.067Z,99045.56
2023-03-05T08:21:20.977Z,99049.84
2023-03-05T08:23:48.936Z,99043.75
2023-03-05T08:26:22.976Z,99042.00
2023-03-05T08:28:51.065Z,99041.81
2023-03-05T08:31:21.828Z,99042.66
2023-03-05T08:33:54.300Z,99037.31
2023-03-05T08:36:22.961Z,99030.22
2023-03-05T08:38:51.104Z,99035.28
2023-03-05T08:41:19.660Z,99037.97
2023-03-05T08:43:47.118Z,99029.06
2023-03-05T08:46:16.212Z,99025.66
2023-03-05T08:48:43.863Z,99016.75
2023-03-05T08:51:17.321Z,99022.84
2023-03-05T08:53:46.171Z,99032.28
2023-03-05T08:56:14.792Z,99026.25
2023-03-05T08:58:42.257Z,99022.75
2023-03-05T09:01:09.816Z,99029.63
2023-03-05T09:03:37.023Z,99030.44
2023-03-05T09:06:08.374Z,99028.53
2023-03-05T09:08:37.071Z,99032.06
2023-03-05T09:11:07.872Z,99030.22
2023-03-05T09:13:36.694Z,99030.03
2023-03-05T09:16:11.117Z,99009.00
2023-03-05T09:18:40.469Z,99034.09
2023-03-05T09:21:11.240Z,99039.50
2023-03-05T09:23:39.463Z,99032.69
2023-03-05T09:26:08.677Z,99038.72
2023-03-05T09:28:37.187Z,99047.28
2023-03-05T09:31:08.008Z,99035.94
2023-03-05T09:33:38.132Z,99040.16
2023-03-05T09:36:23.498Z,99040.25
2023-03-05T09:38:51.204Z,99029.56
2023-03-05T09:41:38.206Z,99037.19
2023-03-05T09:44:27.155Z,99040.63
2023-03-05T09:47:06.095Z,99041.41
2023-03-05T09:49:49.274Z,99038.69
2023-03-05T09:52:47.780Z,99048.47
2023-03-05T09:55:27.014Z,99052.06
2023-03-05T09:57:59.485Z,99048.63
2023-03-05T10:00:45.681Z,99049.03
2023-03-05T10:03:35.310Z,99030.94
2023-03-05T10:06:17.546Z,99035.09
2023-03-05T10:09:05.570Z,99041.16
2023-03-05T10:12:01.243Z,99035.94
2023-03-05T10:14:36.068Z,99034.28
2023-03-05T10:17:45.143Z,99023.66
2023-03-05T10:20:50.700Z,99040.47
2023-03-05T10:23:37.030Z,99030.75
2023-03-05T10:26:14.588Z,99031.38
2023-03-05T10:29:09.109Z,99034.16
2023-03-05T10:31:55.618Z,99034.16
2023-03-05T10:34:41.140Z,99031.56
2023-03-05T10:37:32.493Z,99037.50
2023-03-05T10:40:37.752Z,99026.03
2023-03-05T10:43:36.694Z,99028.38
2023-03-05T10:46:05.383Z,99019.59
2023-03-05T10:48:38.845Z,99010.69
2023-03-05T10:51:30.507Z,99002.56
2023-03-05T10:53:59.502Z,99006.72
2023-03-05T10:56:29.179Z,98977.28
2023-03-05T10:58:57.037Z,99004.66
2023-03-05T11:01:33.624Z,98989.13
2023-03-05T11:04:15.362Z,98981.13
2023-03-05T11:06:48.461Z,98990.78
2023-03-05T11:09:32.593Z,98981.22
2023-03-05T11:12:08.995Z,98979.22
2023-03-05T11:15:08.690Z,98968.19
2023-03-05T11:17:39.659Z,98961.53
2023-03-05T11:20:32.237Z,98953.22
2023-03-05T11:23:18.168Z,98963.28
2023-03-05T11:25:57.925Z,98954.16
2023-03-05T11:28:36.125Z,98951.50
2023-03-05T11:31:18.683Z,98942.28
2023-03-05T11:34:05.124Z,98965.97
2023-03-05T11:36:39.788Z,98956.00
2023-03-05T11:39:10.029Z,98963.16
2023-03-05T11:41:52.483Z,98956.22
2023-03-05T11:44:27.878Z,98948.63
2023-03-05T11:47:05.395Z,98951.09
2023-03-05T11:49:44.345Z,98943.81
2023-03-05T11:52:46.951Z,98940.47
2023-03-05T11:55:28.528Z,98938.28
2023-03-05T11:58:18.309Z,98928.72
2023-03-05T12:00:47.314Z,98925.88
2023-03-05T12:03:19.287Z,98922.75
2023-03-05T12:05:58.040Z,98921.25
2023-03-05T12:08:37.150Z,98909.72
2023-03-05T12:11:21.816Z,98911.91
2023-03-05T12:14:15.011Z,98897.47
2023-03-05T12:17:04.106Z,98902.16
2023-03-05T12:19:52.073Z,98899.66
2023-03-05T12:22:25.635Z,98899.81
2023-03-05T12:24:53.146Z,98896.66
2023-03-05T12:27:37.802Z,98889.47
2023-03-05T12:30:26.583Z,98891.38
2023-03-05T12:32:54.847Z,98888.47
2023-03-05T12:35:38.057Z,98894.94
2023-03-05T12:38:31.980Z,98883.94
2023-03-05T12:41:25.859Z,98892.84
2023-03-05T12:44:06.824Z,98890.94
2023-03-05T12:47:07.270Z,98883.63
2023-03-05T12:49:45.336Z,98877.59
2023-03-05T12:52:23.809Z,98863.03
2023-03-05T12:55:27.692Z,98867.88
2023-03-05T12:58:05.678Z,98868.66
2023-03-05T13:01:04.957Z,98872.34
2023-03-05T13:03:37.724Z,98842.81
2023-03-05T13:06:07.656Z,98858.84
2023-03-05T13:08:44.487Z,98859.91
2023-03-05T13:11:21.793Z,98856.25
2023-03-05T13:13:51.211Z,98857.25
2023-03-05T13:16:37.253Z,98849.34
2023-03-05T13:19:14.735Z,98856.28
2023-03-05T13:22:02.533Z,98853.81
2023-03-05T13:24:31.906Z,98849.25
2023-03-05T13:26:59.392Z,98844.91
2023-03-05T13:29:31.543Z,98836.16
2023-03-05T13:32:20.794Z,98853.63
2023-03-05T13:35:04.674Z,98855.19
2023-03-05T13:37:38.294Z,98853.69
2023-03-05T13:40:16.955Z,98849.50
2023-03-05T13:42:47.555Z,98844.16
2023-03-05T13:45:30.558Z,98854.69
2023-03-05T13:48:07.949Z,98847.94
2023-03-05T13:50:41.333Z,98858.31
2023-03-05T13:53:24.527Z,98846.38
2023-03-05T13:55:55.840Z,98861.13
2023-03-05T13:58:50.433Z,98842.31
2023-03-05T14:01:33.450Z,98850.06
2023-03-05T14:04:13.389Z,98845.75
2023-03-05T14:06:59.586Z,98855.28
2023-03-05T14:09:39.442Z,98855.38
2023-03-05T14:12:39.490Z,98847.28
2023-03-05T14:15:29.201Z,98845.09
2023-03-05T14:18:12.465Z,98840.91
2023-03-05T14:20:59.565Z,98834.75
2023-03-05T14:23:50.110Z,98831.28
2023-03-05T14:26:33.687Z,98831.41
2023-03-05T14:29:17.954Z,98836.78
2023-03-05T14:32:09.249Z,98831.66
2023-03-05T14:34:40.791Z,98829.91
2023-03-05T14:37:25.719Z,98819.44
2023-03-05T14:40:32.524Z,98826.59
2023-03-05T14:43:06.030Z,98823.00
2023-03-05T14:45:36.271Z,98815.97
2023-03-05T14:48:07.056Z,98825.53
2023-03-05T14:50:43.694Z,98821.66
2023-03-05T14:53:19.062Z,98828.03
2023-03-05T14:55:51.265Z,98816.69
2023-03-05T14:58:22.224Z,98829.81
2023-03-05T15:00:53.354Z,98819.84
2023-03-05T15:03:22.297Z,98821.31
2023-03-05T15:05:59.370Z,98820.25
2023-03-05T15:08:30.572Z,98825.72
2023-03-05T15:10:59.673Z,98820.34
2023-03-05T15:13:31.432Z,98810.88
2023-03-05T15:16:00.122Z,98835.28
2023-03-05T15:18:27.570Z,98819.72
2023-03-05T15:20:57.933Z,98837.34
2023-03-05T15:23:26.240Z,98832.28
2023-03-05T15:25:56.841Z,98839.19
2023-03-05T15:28:25.353Z,98856.84
2023-03-05T15:30:53.437Z,98861.00
2023-03-05T15:33:23.005Z,98864.78
2023-03-05T15:35:52.485Z,98856.19
2023-03-05T15:38:24.362Z,98850.94
2023-03-05T15:40:55.286Z,98851.78
2023-03-05T15:43:24.005Z,98852.53
2023-03-05T15:45:53.573Z,98836.97
2023-03-05T15:48:21.930Z,98846.56
2023-03-05T15:50:50.106Z,98851.81
2023-03-05T15:53:31.324Z,98837.91
2023-03-05T15:55:59.777Z,98841.34
2023-03-05T15:58:27.655Z,98837.16
2023-03-05T16:00:56.285Z,98844.00
2023-03-05T16:03:24.506Z,98839.81
2023-03-05T16:05:52.831Z,98844.78
2023-03-05T16:08:21.287Z,98846.53
2023-03-05T16:10:49.432Z,98844.81
2023-03-05T16:13:21.236Z,98846.66
2023-03-05T16:15:54.006Z,98845.78
2023-03-05T16:18:23.942Z,98844.94
2023-03-05T16:20:53.525Z,98834.41
2023-03-05T16:23:23.386Z,98837.75
2023-03-05T16:25:58.096Z,98836.06
2023-03-05T16:28:27.355Z,98835.03
2023-03-05T16:30:58.817Z,98832.53
2023-03-05T16:33:27.718Z,98838.59
2023-03-05T16:36:19.552Z,98842.69
2023-03-05T16:38:52.399Z,98846.34
2023-03-05T16:41:23.966Z,98846.53
2023-03-05T16:44:00.870Z,98838.88
2023-03-05T16:46:31.987Z,98839.28
2023-03-05T16:49:03.066Z,98819.16
2023-03-05T16:51:33.231Z,98827.91
2023-03-05T16:54:01.759Z,98852.34
2023-03-05T16:56:29.748Z,98842.81
2023-03-05T16:58:58.030Z,98843.63
2023-03-05T17:01:25.942Z,98825.22
2023-03-05T17:03:54.571Z,98827.13
2023-03-05T17:06:27.036Z,98839.41
2023-03-05T17:08:56.201Z,98836.03
2023-03-05T17:11:26.688Z,98836.91
2023-03-05T17:13:56.581Z,98836.81
2023-03-05T17:16:27.894Z,98840.16
2023-03-05T17:18:56.694Z,98838.41
2023-03-05T17:21:25.933Z,98836.50
2023-03-05T17:23:55.662Z,98836.22
2023-03-05T17:26:24.451Z,98834.13
2023-03-05T17:28:54.442Z,98838.44
2023-03-05T17:31:22.813Z,98829.84
2023-03-05T17:33:51.420Z,98833.50
2023-03-05T17:36:27.396Z,98835.25
2023-03-05T17:38:56.436Z,98819.59
2023-03-05T17:41:25.654Z,98824.84
2023-03-05T17:43:53.600Z,98823.13
2023-03-05T17:46:22.392Z,98819.59
2023-03-05T17:48:54.406Z,98813.31
2023-03-05T17:51:23.284Z,98812.41
2023-03-05T17:54:02.250Z,98817.72
2023-03-05T17:56:35.512Z,98815.25
2023-03-05T17:59:06.876Z,98815.06
2023-03-05T18:01:47.256Z,98808.97
2023-03-05T18:04:18.213Z,98808.94
2023-03-05T18:06:47.383Z,98801.13
2023-03-05T18:09:16.033Z,98800.47
2023-03-05T18:11:44.867Z,98801.38
2023-03-05T18:14:15.156Z,98802.19
2023-03-05T18:16:46.737Z,98801.41
2023-03-05T18:19:17.747Z,98802.25
2023-03-05T18:21:50.404Z,98812.78
2023-03-05T18:24:22.335Z,98804.84
2023-03-05T18:26:53.064Z,98801.47
2023-03-05T18:29:43.700Z,98800.97
2023-03-05T18:32:14.744Z,98799.94
2023-03-05T18:34:50.805Z,98805.78
2023-03-05T18:37:19.312Z,98810.16
2023-03-05T18:39:47.456Z,98812.03
2023-03-05T18:42:16.960Z,98807.75
2023-03-05T18:44:45.627Z,98802.66
2023-03-05T18:47:15.720Z,98803.59
2023-03-05T18:49:58.246Z,98800.06
2023-03-05T18:55:20.485Z,98800.22
2023-03-05T18:58:01.838Z,98798.47
2023-03-05T19:00:33.340Z,98797.53
2023-03-05T19:03:04.809Z,98794.03
2023-03-05T19:05:35.642Z,98795.81
2023-03-05T19:08:05.559Z,98797.53
2023-03-05T19:10:34.865Z,98789.06
2023-03-05T19:13:31.871Z,98797.63
2023-03-05T19:16:04.200Z,98794.13
2023-03-05T19:18:39.476Z,98793.06
2023-03-05T19:21:14.104Z,98803.50
2023-03-05T19:23:46.555Z,98797.47
2023-03-05T19:26:14.461Z,98797.69
2023-03-05T19:28:43.055Z,98788.94
2023-03-05T19:31:11.596Z,98790.66
2023-03-05T19:33:40.104Z,98784.72
2023-03-05T19:36:22.070Z,98792.41
2023-03-05T19:38:55.260Z,98786.41
2023-03-05T19:41:23.452Z,98789.94
2023-03-05T19:44:05.052Z,98788.19
2023-03-05T19:46:34.127Z,98796.00
2023-03-05T19:49:03.805Z,98792.34
2023-03-05T19:51:32.332Z,98795.16
2023-03-05T19:54:01.086Z,98790.81
2023-03-05T19:56:29.711Z,98796.75
2023-03-05T19:59:05.591Z,98796.00
2023-03-05T20:01:34.350Z,98790.75
2023-03-05T20:04:05.490Z,98791.53
2023-03-05T20:06:34.739Z,98790.63
2023-03-05T20:09:08.097Z,98795.00
2023-03-05T20:11:38.595Z,98793.28
2023-03-05T20:14:11.013Z,98794.16
2023-03-05T20:16:40.014Z,98782.03
2023-03-05T20:19:17.027Z,98785.41
2023-03-05T20:21:46.189Z,98793.34
2023-03-05T20:24:17.704Z,98797.63
2023-03-05T20:26:48.350Z,98796.84
2023-03-05T20:29:18.365Z,98792.44
2023-03-05T20:31:47.152Z,98801.16
2023-03-05T20:34:17.787Z,98788.94
2023-03-05T20:36:46.922Z,98793.34
2023-03-05T20:39:16.606Z,98796.69
2023-03-05T20:41:45.311Z,98789.00
2023-03-05T20:44:15.188Z,98785.56
2023-03-05T20:46:53.721Z,98783.84
2023-03-05T20:49:22.664Z,98782.66
2023-03-05T20:51:52.590Z,98781.84
2023-03-05T20:54:21.488Z,98773.25
2023-03-05T20:56:49.813Z,98764.84
2023-03-05T20:59:18.098Z,98752.91
2023-03-05T21:01:46.819Z,98753.81
2023-03-05T21:04:15.138Z,98760.72
2023-03-05T21:06:43.537Z,98751.31
2023-03-05T21:09:11.867Z,98743.63
2023-03-05T21:11:41.366Z,98746.25
2023-03-05T21:14:10.077Z,98753.34
2023-03-05T21:16:45.298Z,98752.84
2023-03-05T21:19:14.088Z,98760.72
2023-03-05T21:21:46.458Z,98755.50
2023-03-05T21:24:14.491Z,98771.22
2023-03-05T21:26:42.510Z,98757.31
2023-03-05T21:29:10.342Z,98765.00
2023-03-05T21:31:38.934Z,98748.41
2023-03-05T21:34:06.963Z,98762.44
2023-03-05T21:36:35.911Z,98761.59
2023-03-05T21:39:04.151Z,98763.41
2023-03-05T21:41:33.962Z,98765.19
2023-03-05T21:44:04.371Z,98758.16
2023-03-05T21:46:33.541Z,98757.84
2023-03-05T21:49:02.984Z,98753.56
2023-03-05T21:51:38.733Z,98767.44
2023-03-05T21:54:07.625Z,98764.94
2023-03-05T21:56:35.146Z,98763.97
2023-03-05T21:59:03.474Z,98760.59
2023-03-05T22:01:31.081Z,98765.66
2023-03-05T22:03:58.264Z,98756.91
2023-03-05T22:06:25.692Z,98756.00
2023-03-05T22:08:52.821Z,98751.53
2023-03-05T22:11:21.355Z,98752.44
2023-03-05T22:13:50.982Z,98756.72
2023-03-05T22:16:23.961Z,98753.38
2023-03-05T22:18:51.966Z,98749.09
2023-03-05T22:21:26.318Z,98744.91
2023-03-05T22:23:57.460Z,98740.63
2023-03-05T22:26:34.664Z,98735.34
2023-03-05T22:29:03.477Z,98733.69
2023-03-05T22:31:30.910Z,98732.81
2023-03-05T22:33:58.700Z,98734.50
2023-03-05T22:36:26.454Z,98734.66
2023-03-05T22:38:54.018Z,98725.13
2023-03-05T22:41:22.065Z,98719.03
2023-03-05T22:43:51.995Z,98719.03
2023-03-05T22:46:22.364Z,98718.97
2023-03-05T22:48:52.848Z,98722.53
2023-03-05T22:51:32.375Z,98722.53
2023-03-05T22:54:02.010Z,98712.28
2023-03-05T22:56:29.491Z,98712.16
2023-03-05T22:58:57.779Z,98703.47
2023-03-05T23:01:26.905Z,98707.50
2023-03-05T23:03:59.080Z,98710.06
2023-03-05T23:06:27.465Z,98706.63
2023-03-05T23:08:55.980Z,98727.59
2023-03-05T23:11:23.359Z,98726.03
2023-03-05T23:13:50.800Z,98722.50
2023-03-05T23:16:19.262Z,98723.47
2023-03-05T23:18:47.631Z,98724.38
2023-03-05T23:21:15.224Z,98726.97
2023-03-05T23:23:43.623Z,98718.22
2023-03-05T23:26:11.072Z,98708.78
2023-03-05T23:28:38.625Z,98709.59
2023-03-05T23:31:06.140Z,98707.84
2023-03-05T23:33:34.464Z,98716.53
2023-03-05T23:36:04.186Z,98720.88
2023-03-05T23:38:32.509Z,98718.25
2023-03-05T23:41:03.987Z,98713.88
2023-03-05T23:43:33.622Z,98706.16
2023-03-05T23:46:02.278Z,98707.91
2023-03-05T23:48:32.146Z,98711.41
2023-03-05T23:50:59.553Z,98708.91
2023-03-05T23:53:31.580Z,98710.53
2023-03-05T23:56:12.541Z,98708.81
2023-03-05T23:58:39.828Z,98709.66
